createdAt,value
2023-05-07T00:00:50.801Z,101580.97
2023-05-07T00:03:19.350Z,101580.81
2023-05-07T00:05:47.466Z,101578.91
2023-05-07T00:08:15.200Z,101586.44
2023-05-07T00:10:43.454Z,101580.88
2023-05-07T00:13:11.249Z,101584.00
2023-05-07T00:15:39.116Z,101587.75
2023-05-07T00:18:08.298Z,101585.03
2023-05-07T00:20:36.469Z,101588.09
2023-05-07T00:23:04.457Z,101578.16
2023-05-07T00:25:32.568Z,101586.03
2023-05-07T00:28:04.622Z,101586.91
2023-05-07T00:30:32.448Z,101585.72
2023-05-07T00:33:00.285Z,101578.53
2023-05-07T00:35:30.503Z,101574.94
2023-05-07T00:37:58.338Z,101582.13
2023-05-07T00:40:26.108Z,101574.53
2023-05-07T00:42:57.737Z,101577.97
2023-05-07T00:45:28.798Z,101580.88
2023-05-07T00:47:57.664Z,101577.44
2023-05-07T00:50:25.776Z,101573.97
2023-05-07T00:52:55.829Z,101572.41
2023-05-07T00:55:25.342Z,101577.88
2023-05-07T00:57:53.789Z,101575.31
2023-05-07T01:00:22.151Z,101583.53
2023-05-07T01:02:50.188Z,101577.22
2023-05-07T01:05:21.075Z,101575.78
2023-05-07T01:07:50.462Z,101570.63
2023-05-07T01:10:19.935Z,101568.91
2023-05-07T01:12:50.525Z,101571.63
2023-05-07T01:15:19.131Z,101567.19
2023-05-07T01:17:47.877Z,101566.63
2023-05-07T01:20:16.898Z,101569.19
2023-05-07T01:22:46.991Z,101564.59
2023-05-07T01:25:17.264Z,101570.25
2023-05-07T01:27:45.254Z,101575.84
2023-05-07T01:30:14.014Z,101568.66
2023-05-07T01:32:46.061Z,101572.97
2023-05-07T01:35:18.775Z,101570.06
2023-05-07T01:37:49.510Z,101565.63
2023-05-07T01:40:17.672Z,101557.41
2023-05-07T01:42:46.120Z,101546.75
2023-05-07T01:45:13.957Z,101547.47
2023-05-07T01:47:41.869Z,101549.66
2023-05-07T01:50:11.303Z,101542.78
2023-05-07T01:52:40.451Z,101548.09
2023-05-07T01:55:10.438Z,101544.81
2023-05-07T01:57:38.226Z,101548.84
2023-05-07T02:00:07.224Z,101544.56
2023-05-07T02:02:35.188Z,101546.25
2023-05-07T02:05:03.669Z,101550.03
2023-05-07T02:07:31.466Z,101553.75
2023-05-07T02:09:59.288Z,101540.53
2023-05-07T02:12:28.458Z,101550.16
2023-05-07T02:14:56.273Z,101551.03
2023-05-07T02:17:24.000Z,101548.59
2023-05-07T02:19:51.754Z,101551.66
2023-05-07T02:22:19.867Z,101557.97
2023-05-07T02:24:47.686Z,101555.22
2023-05-07T02:27:15.418Z,101563.28
2023-05-07T02:29:44.644Z,101553.38
2023-05-07T02:32:12.441Z,101555.06
2023-05-07T02:34:40.411Z,101554.22
2023-05-07T02:37:08.158Z,101564.59
2023-05-07T02:39:35.997Z,101564.44
2023-05-07T02:42:03.741Z,101561.88
2023-05-07T02:44:32.462Z,101560.13
2023-05-07T02:47:01.630Z,101555.00
2023-05-07T02:49:29.451Z,101554.13
2023-05-07T02:51:57.271Z,101551.25
2023-05-07T02:54:24.997Z,101563.03
2023-05-07T02:56:52.794Z,101553.81
2023-05-07T02:59:20.563Z,101555.00
2023-05-07T03:01:49.406Z,101543.50
2023-05-07T03:04:18.766Z,101548.09
2023-05-07T03:06:46.553Z,101548.41
2023-05-07T03:09:14.330Z,101536.19
2023-05-07T03:11:42.306Z,101553.56
2023-05-07T03:14:10.254Z,101527.44
2023-05-07T03:16:38.189Z,101554.44
2023-05-07T03:19:06.021Z,101546.69
2023-05-07T03:21:35.512Z,101551.69
2023-05-07T03:24:03.262Z,101549.81
2023-05-07T03:26:30.996Z,101544.97
2023-05-07T03:28:58.768Z,101554.72
2023-05-07T03:31:26.816Z,101554.88
2023-05-07T03:33:55.893Z,101548.41
2023-05-07T03:36:24.238Z,101548.56
2023-05-07T03:38:53.533Z,101546.69
2023-05-07T03:41:21.476Z,101543.78
2023-05-07T03:43:49.308Z,101550.25
2023-05-07T03:46:17.090Z,101550.25
2023-05-07T03:48:44.871Z,101550.13
2023-05-07T03:51:12.695Z,101556.16
2023-05-07T03:53:40.539Z,101559.56
2023-05-07T03:56:09.744Z,101564.19
2023-05-07T03:58:37.473Z,101557.84
2023-05-07T04:01:05.724Z,101562.47
2023-05-07T04:03:33.584Z,101566.06
2023-05-07T04:06:01.768Z,101569.66
2023-05-07T04:08:29.591Z,101575.13
2023-05-07T04:10:57.923Z,101573.13
2023-05-07T04:13:27.506Z,101570.38
2023-05-07T04:15:57.193Z,101570.50
2023-05-07T04:18:24.987Z,101567.09
2023-05-07T04:20:52.973Z,101576.16
2023-05-07T04:23:20.827Z,101569.97
2023-05-07T04:25:48.647Z,101578.03
2023-05-07T04:28:16.407Z,101579.72
2023-05-07T04:30:45.750Z,101568.94
2023-05-07T04:33:13.606Z,101572.56
2023-05-07T04:35:41.563Z,101569.97
2023-05-07T04:38:09.288Z,101569.13
2023-05-07T04:40:37.982Z,101569.13
2023-05-07T04:43:05.782Z,101564.50
2023-05-07T04:45:34.110Z,101566.22
2023-05-07T04:48:03.605Z,101565.38
2023-05-07T04:50:31.562Z,101563.66
2023-05-07T04:52:59.494Z,101568.78
2023-05-07T04:55:27.203Z,101567.09
2023-05-07T04:57:55.507Z,101569.66
2023-05-07T05:00:23.927Z,101575.13
2023-05-07T05:02:51.802Z,101573.41
2023-05-07T05:05:21.710Z,101572.56
2023-05-07T05:07:49.544Z,101569.97
2023-05-07T05:10:17.359Z,101577.16
2023-05-07T05:12:45.354Z,101575.31
2023-05-07T05:15:13.978Z,101576.44
2023-05-07T05:17:41.804Z,101585.34
2023-05-07T05:20:11.186Z,101581.63
2023-05-07T05:22:40.663Z,101584.06
2023-05-07T05:25:09.022Z,101587.94
2023-05-07T05:27:37.043Z,101595.69
2023-05-07T05:30:06.388Z,101597.72
2023-05-07T05:32:34.741Z,101607.34
2023-05-07T05:35:02.815Z,101602.59
2023-05-07T05:37:31.227Z,101605.88
2023-05-07T05:40:00.339Z,101615.94
2023-05-07T05:42:28.277Z,101615.94
2023-05-07T05:44:56.175Z,101611.94
2023-05-07T05:47:25.084Z,101621.88
2023-05-07T05:49:54.783Z,101624.00
2023-05-07T05:52:24.739Z,101620.56
2023-05-07T05:54:52.580Z,101625.03
2023-05-07T05:57:21.831Z,101631.03
2023-05-07T05:59:49.675Z,101633.75
2023-05-07T06:02:17.579Z,101637.22
2023-05-07T06:04:45.416Z,101632.75
2023-05-07T06:07:13.198Z,101629.00
2023-05-07T06:09:40.969Z,101629.16
2023-05-07T06:12:08.952Z,101641.53
2023-05-07T06:14:38.091Z,101640.81
2023-05-07T06:17:06.344Z,101643.28
2023-05-07T06:19:34.155Z,101644.84
2023-05-07T06:22:02.852Z,101644.56
2023-05-07T06:24:30.998Z,101645.41
2023-05-07T06:26:59.456Z,101645.25
2023-05-07T06:29:27.755Z,101641.50
2023-05-07T06:31:56.959Z,101648.69
2023-05-07T06:34:26.395Z,101636.34
2023-05-07T06:36:54.162Z,101651.81
2023-05-07T06:39:21.932Z,101634.28
2023-05-07T06:41:49.738Z,101652.72
2023-05-07T06:44:17.546Z,101654.28
2023-05-07T06:46:46.306Z,101654.66
2023-05-07T06:49:16.526Z,101645.75
2023-05-07T06:51:44.494Z,101639.03
2023-05-07T06:54:12.363Z,101642.00
2023-05-07T06:56:40.182Z,101647.19
2023-05-07T06:59:08.963Z,101650.31
2023-05-07T07:01:36.791Z,101648.13
2023-05-07T07:04:04.762Z,101628.25
2023-05-07T07:06:33.900Z,101638.44
2023-05-07T07:09:02.008Z,101646.16
2023-05-07T07:11:29.846Z,101641.97
2023-05-07T07:13:57.553Z,101639.22
2023-05-07T07:16:25.394Z,101641.13
2023-05-07T07:18:53.514Z,101642.06
2023-05-07T07:21:21.488Z,101641.34
2023-05-07T07:23:50.670Z,101638.59
2023-05-07T07:26:19.755Z,101640.53
2023-05-07T07:28:48.068Z,101642.44
2023-05-07T07:31:16.240Z,101650.03
2023-05-07T07:33:44.124Z,101645.56
2023-05-07T07:36:12.019Z,101640.47
2023-05-07T07:38:39.720Z,101644.94
2023-05-07T07:41:10.345Z,101636.97
2023-05-07T07:43:38.246Z,101636.47
2023-05-07T07:46:06.398Z,101642.34
2023-05-07T07:48:34.247Z,101640.00
2023-05-07T07:51:02.076Z,101645.22
2023-05-07T07:53:29.883Z,101622.81
2023-05-07T07:55:59.506Z,101650.13
2023-05-07T07:58:29.046Z,101645.53
2023-05-07T08:00:57.459Z,101649.84
2023-05-07T08:03:25.429Z,101652.41
2023-05-07T08:05:53.258Z,101654.84
2023-05-07T08:08:20.994Z,101635.97
2023-05-07T08:10:51.001Z,101655.47
2023-05-07T08:13:19.546Z,101657.88
2023-05-07T08:15:48.713Z,101640.91
2023-05-07T08:18:16.486Z,101651.75
2023-05-07T08:20:44.320Z,101638.56
2023-05-07T08:23:12.260Z,101654.59
2023-05-07T08:25:40.103Z,101655.38
2023-05-07T08:28:09.788Z,101655.41
2023-05-07T08:30:38.021Z,101661.44
2023-05-07T08:33:07.319Z,101667.66
2023-05-07T08:35:35.124Z,101664.22
2023-05-07T08:38:02.948Z,101663.53
2023-05-07T08:40:31.257Z,101664.22
2023-05-07T08:43:00.068Z,101662.50
2023-05-07T08:45:30.032Z,101670.59
2023-05-07T08:48:11.719Z,101665.94
2023-05-07T08:50:40.037Z,101667.66
2023-05-07T08:53:08.116Z,101661.00
2023-05-07T08:55:35.980Z,101663.56
2023-05-07T08:58:03.772Z,101668.50
2023-05-07T09:00:31.589Z,101669.34
2023-05-07T09:02:59.417Z,101667.41
2023-05-07T09:05:28.593Z,101672.72
2023-05-07T09:07:58.397Z,101675.75
2023-05-07T09:10:26.323Z,101681.75
2023-05-07T09:12:54.225Z,101682.25
2023-05-07T09:15:22.805Z,101681.53
2023-05-07T09:17:50.579Z,101674.13
2023-05-07T09:20:18.732Z,101683.34
2023-05-07T09:22:47.863Z,101681.66
2023-05-07T09:25:15.668Z,101674.28
2023-05-07T09:27:44.215Z,101682.66
2023-05-07T09:30:13.132Z,101680.69
2023-05-07T09:32:41.017Z,101683.13
2023-05-07T09:35:16.942Z,101683.88
2023-05-07T09:37:44.800Z,101685.94
2023-05-07T09:40:22.869Z,101681.78
2023-05-07T09:42:51.267Z,101688.94
2023-05-07T09:45:23.946Z,101688.88
2023-05-07T09:47:55.664Z,101684.41
2023-05-07T09:50:27.182Z,101689.88
2023-05-07T09:52:56.301Z,101678.72
2023-05-07T09:55:25.634Z,101685.09
2023-05-07T09:57:55.177Z,101684.25
2023-05-07T10:00:24.479Z,101687.09
2023-05-07T10:02:56.442Z,101692.09
2023-05-07T10:05:24.493Z,101682.63
2023-05-07T10:07:53.119Z,101696.44
2023-05-07T10:10:21.305Z,101692.53
2023-05-07T10:12:51.900Z,101695.66
2023-05-07T10:15:20.727Z,101687.19
2023-05-07T10:17:50.541Z,101692.34
2023-05-07T10:20:18.368Z,101689.69
2023-05-07T10:22:49.275Z,101687.50
2023-05-07T10:25:20.884Z,101690.06
2023-05-07T10:27:52.267Z,101684.16
2023-05-07T10:30:33.475Z,101684.44
2023-05-07T10:33:07.175Z,101685.78
2023-05-07T10:35:41.605Z,101695.06
2023-05-07T10:38:10.402Z,101694.34
2023-05-07T10:40:38.336Z,101688.53
2023-05-07T10:43:10.529Z,101694.78
2023-05-07T10:45:38.804Z,101692.41
2023-05-07T10:50:47.132Z,101687.22
2023-05-07T10:53:29.826Z,101698.66
2023-05-07T10:56:31.812Z,101699.06
2023-05-07T10:59:35.854Z,101707.03
2023-05-07T11:02:07.299Z,101697.28
2023-05-07T11:04:36.290Z,101702.09
2023-05-07T11:07:31.236Z,101705.38
2023-05-07T11:10:07.175Z,101709.44
2023-05-07T11:12:54.519Z,101707.72
2023-05-07T11:15:39.081Z,101709.06
2023-05-07T11:18:07.069Z,101700.94
2023-05-07T11:21:00.167Z,101706.47
2023-05-07T11:24:02.617Z,101702.09
2023-05-07T11:26:32.472Z,101700.78
2023-05-07T11:29:01.366Z,101705.84
2023-05-07T11:31:31.040Z,101701.25
2023-05-07T11:33:59.964Z,101709.56
2023-05-07T11:36:32.856Z,101704.91
2023-05-07T11:39:00.674Z,101703.44
2023-05-07T11:41:37.039Z,101705.00
2023-05-07T11:44:05.121Z,101706.63
2023-05-07T11:46:34.413Z,101708.03
2023-05-07T11:49:02.967Z,101702.34
2023-05-07T11:51:30.913Z,101713.25
2023-05-07T11:53:58.774Z,101706.09
2023-05-07T11:56:26.695Z,101709.06
2023-05-07T11:58:54.551Z,101703.91
2023-05-07T12:01:22.338Z,101699.06
2023-05-07T12:03:51.594Z,101714.34
2023-05-07T12:06:19.428Z,101703.56
2023-05-07T12:08:48.585Z,101707.75
2023-05-07T12:11:19.038Z,101707.88
2023-05-07T12:13:46.965Z,101710.31
2023-05-07T12:16:14.933Z,101701.22
2023-05-07T12:18:46.607Z,101707.72
2023-05-07T12:21:17.496Z,101710.78
2023-05-07T12:23:45.506Z,101707.09
2023-05-07T12:26:13.433Z,101702.72
2023-05-07T12:28:41.718Z,101688.13
2023-05-07T12:31:10.414Z,101692.47
2023-05-07T12:33:38.437Z,101701.56
2023-05-07T12:36:09.107Z,101699.13
2023-05-07T12:38:39.479Z,101704.28
2023-05-07T12:41:08.721Z,101710.44
2023-05-07T12:43:36.752Z,101692.56
2023-05-07T12:46:07.587Z,101704.53
2023-05-07T12:48:37.827Z,101712.88
2023-05-07T12:51:08.042Z,101711.84
2023-05-07T12:53:37.740Z,101715.03
2023-05-07T12:56:07.924Z,101719.53
2023-05-07T12:58:37.206Z,101721.63
2023-05-07T13:01:07.582Z,101725.66
2023-05-07T13:03:36.647Z,101728.41
2023-05-07T13:06:06.429Z,101723.88
2023-05-07T13:08:35.390Z,101728.66
2023-05-07T13:11:04.913Z,101738.00
2023-05-07T13:13:35.618Z,101744.06
2023-05-07T13:16:04.044Z,101750.34
2023-05-07T13:18:33.499Z,101759.69
2023-05-07T13:21:02.541Z,101745.97
2023-05-07T13:23:30.732Z,101748.19
2023-05-07T13:25:58.732Z,101749.78
2023-05-07T13:28:27.176Z,101760.88
2023-05-07T13:30:56.513Z,101751.84
2023-05-07T13:33:25.161Z,101760.03
2023-05-07T13:35:53.036Z,101762.94
2023-05-07T13:38:22.043Z,101763.59
2023-05-07T13:40:50.832Z,101758.44
2023-05-07T13:43:19.771Z,101754.22
2023-05-07T13:45:47.641Z,101763.78
2023-05-07T13:48:16.855Z,101756.47
2023-05-07T13:50:44.636Z,101760.75
2023-05-07T13:53:12.498Z,101759.13
2023-05-07T13:55:40.461Z,101764.72
2023-05-07T13:58:08.253Z,101764.78
2023-05-07T14:00:36.407Z,101763.13
2023-05-07T14:03:04.438Z,101758.94
2023-05-07T14:05:33.816Z,101778.09
2023-05-07T14:08:01.813Z,101773.34
2023-05-07T14:10:29.742Z,101780.13
2023-05-07T14:12:57.605Z,101779.94
2023-05-07T14:15:25.478Z,101777.84
2023-05-07T14:17:53.402Z,101783.53
2023-05-07T14:20:22.783Z,101778.88
2023-05-07T14:22:51.992Z,101779.09
2023-05-07T14:25:20.267Z,101785.72
2023-05-07T14:27:48.219Z,101787.47
2023-05-07T14:30:16.142Z,101786.50
2023-05-07T14:32:46.827Z,101787.22
2023-05-07T14:35:15.184Z,101796.03
2023-05-07T14:37:43.205Z,101789.81
2023-05-07T14:40:14.524Z,101801.63
2023-05-07T14:42:42.756Z,101800.03
2023-05-07T14:45:12.079Z,101799.47
2023-05-07T14:47:42.945Z,101795.63
2023-05-07T14:50:11.743Z,101785.06
2023-05-07T14:52:39.528Z,101793.34
2023-05-07T14:55:08.107Z,101786.69
2023-05-07T14:57:37.491Z,101787.94
2023-05-07T15:00:06.291Z,101785.72
2023-05-07T15:02:34.334Z,101783.31
2023-05-07T15:05:02.161Z,101789.53
2023-05-07T15:07:30.130Z,101787.00
2023-05-07T15:09:57.957Z,101776.81
2023-05-07T15:12:25.763Z,101792.38
2023-05-07T15:14:54.973Z,101784.72
2023-05-07T15:17:22.801Z,101778.06
2023-05-07T15:19:51.985Z,101788.78
2023-05-07T15:22:22.407Z,101794.56
2023-05-07T15:24:50.375Z,101800.91
2023-05-07T15:27:19.080Z,101797.31
2023-05-07T15:29:47.239Z,101799.34
2023-05-07T15:32:16.784Z,101810.59
2023-05-07T15:34:44.550Z,101817.47
2023-05-07T15:37:12.445Z,101816.41
2023-05-07T15:39:40.535Z,101814.94
2023-05-07T15:42:08.335Z,101818.94
2023-05-07T15:44:36.619Z,101793.38
2023-05-07T15:47:04.495Z,101815.63
2023-05-07T15:49:34.501Z,101813.69
2023-05-07T15:52:02.491Z,101813.31
2023-05-07T15:54:30.392Z,101813.00
2023-05-07T15:56:58.460Z,101819.97
2023-05-07T15:59:26.366Z,101818.03
2023-05-07T16:01:54.276Z,101821.19
2023-05-07T16:04:22.092Z,101819.47
2023-05-07T16:06:51.375Z,101806.25
2023-05-07T16:09:19.508Z,101812.63
2023-05-07T16:11:47.438Z,101821.97
2023-05-07T16:14:15.624Z,101817.84
2023-05-07T16:16:43.644Z,101820.94
2023-05-07T16:19:11.462Z,101818.19
2023-05-07T16:21:39.328Z,101817.47
2023-05-07T16:24:09.064Z,101817.50
2023-05-07T16:26:36.874Z,101816.84
2023-05-07T16:29:05.593Z,101824.72
2023-05-07T16:31:33.681Z,101819.88
2023-05-07T16:34:01.949Z,101813.66
2023-05-07T16:36:29.944Z,101816.97
2023-05-07T16:38:57.824Z,101832.13
2023-05-07T16:41:27.115Z,101835.53
2023-05-07T16:43:54.919Z,101832.13
2023-05-07T16:46:22.820Z,101832.22
2023-05-07T16:48:50.683Z,101834.94
2023-05-07T16:51:18.609Z,101839.13
2023-05-07T16:53:46.585Z,101840.22
2023-05-07T16:56:14.449Z,101834.19
2023-05-07T16:58:43.663Z,101836.44
2023-05-07T17:01:12.389Z,101832.31
2023-05-07T17:03:47.778Z,101823.00
2023-05-07T17:06:15.700Z,101822.31
2023-05-07T17:08:43.493Z,101820.75
2023-05-07T17:11:12.067Z,101820.88
2023-05-07T17:13:43.799Z,101822.78
2023-05-07T17:16:12.988Z,101834.66
2023-05-07T17:18:40.836Z,101837.28
2023-05-07T17:21:08.710Z,101835.34
2023-05-07T17:23:36.535Z,101838.94
2023-05-07T17:26:04.301Z,101840.53
2023-05-07T17:28:32.088Z,101843.09
2023-05-07T17:30:59.993Z,101842.22
2023-05-07T17:33:29.289Z,101844.47
2023-05-07T17:35:57.229Z,101842.59
2023-05-07T17:38:25.269Z,101840.88
2023-05-07T17:40:53.048Z,101850.69
2023-05-07T17:43:23.878Z,101854.47
2023-05-07T17:45:51.764Z,101850.16
2023-05-07T17:48:20.069Z,101857.25
2023-05-07T17:50:49.300Z,101866.69
2023-05-07T17:53:17.264Z,101857.44
2023-05-07T17:55:45.653Z,101863.25
2023-05-07T17:58:13.842Z,101872.25
2023-05-07T18:00:41.822Z,101876.34
2023-05-07T18:03:13.572Z,101874.28
2023-05-07T18:05:44.014Z,101877.53
2023-05-07T18:08:13.483Z,101888.75
2023-05-07T18:10:41.627Z,101883.25
2023-05-07T18:13:09.598Z,101877.53
2023-05-07T18:15:38.018Z,101882.91
2023-05-07T18:18:09.077Z,101892.56
2023-05-07T18:20:37.124Z,101860.19
2023-05-07T18:23:05.060Z,101893.91
2023-05-07T18:25:34.283Z,101893.91
2023-05-07T18:28:02.336Z,101897.69
2023-05-07T18:30:30.201Z,101893.38
2023-05-07T18:32:58.080Z,101896.66
2023-05-07T18:35:25.935Z,101895.81
2023-05-07T18:37:53.851Z,101901.50
2023-05-07T18:40:22.124Z,101895.28
2023-05-07T18:42:51.382Z,101895.47
2023-05-07T18:45:19.413Z,101897.34
2023-05-07T18:47:47.825Z,101902.19
2023-05-07T18:50:16.512Z,101897.50
2023-05-07T18:52:44.321Z,101903.19
2023-05-07T18:55:12.142Z,101900.78
2023-05-07T18:57:39.994Z,101902.34
2023-05-07T19:00:11.977Z,101908.03
2023-05-07T19:02:40.295Z,101913.53
2023-05-07T19:05:09.239Z,101903.69
2023-05-07T19:07:37.108Z,101914.88
2023-05-07T19:10:19.824Z,101909.00
2023-05-07T19:12:47.838Z,101908.47
2023-05-07T19:15:17.003Z,101916.41
2023-05-07T19:17:45.025Z,101916.22
2023-05-07T19:20:13.915Z,101917.25
2023-05-07T19:22:41.853Z,101920.19
2023-05-07T19:25:11.223Z,101923.94
2023-05-07T19:27:39.211Z,101928.22
2023-05-07T19:30:09.076Z,101924.44
2023-05-07T19:32:38.576Z,101946.84
2023-05-07T19:35:06.938Z,101944.09
2023-05-07T19:37:35.302Z,101948.69
2023-05-07T19:40:05.287Z,101950.59
2023-05-07T19:42:33.580Z,101949.91
2023-05-07T19:45:01.618Z,101950.59
2023-05-07T19:47:29.483Z,101961.94
2023-05-07T19:49:59.150Z,101964.50
2023-05-07T19:52:27.630Z,101955.19
2023-05-07T19:54:55.556Z,101973.59
2023-05-07T19:57:23.360Z,101970.00
2023-05-07T19:59:51.142Z,101967.91
2023-05-07T20:02:21.958Z,101972.88
2023-05-07T20:04:49.878Z,101980.81
2023-05-07T20:07:20.552Z,101976.53
2023-05-07T20:09:48.731Z,101978.38
2023-05-07T20:12:18.027Z,101983.03
2023-05-07T20:14:45.862Z,101991.47
2023-05-07T20:17:13.707Z,101975.91
2023-05-07T20:19:43.902Z,101987.63
2023-05-07T20:22:11.769Z,101980.03
2023-05-07T20:24:40.982Z,101985.72
2023-05-07T20:27:09.251Z,101985.47
2023-05-07T20:29:37.217Z,101989.78
2023-05-07T20:32:05.316Z,101982.56
2023-05-07T20:34:33.314Z,101983.75
2023-05-07T20:37:01.888Z,101984.78
2023-05-07T20:39:29.706Z,101992.34
2023-05-07T20:41:59.749Z,101992.47
2023-05-07T20:44:27.574Z,101992.84
2023-05-07T20:46:55.858Z,101996.59
2023-05-07T20:49:24.019Z,101988.69
2023-05-07T20:51:51.949Z,101991.22
2023-05-07T20:54:19.799Z,101993.13
2023-05-07T20:56:47.847Z,101992.59
2023-05-07T20:59:16.949Z,101993.91
2023-05-07T21:01:44.802Z,101998.31
2023-05-07T21:04:12.853Z,101988.00
2023-05-07T21:06:40.642Z,101995.00
2023-05-07T21:09:08.665Z,101999.97
2023-05-07T21:11:36.399Z,101999.59
2023-05-07T21:14:04.555Z,101992.84
2023-05-07T21:16:33.770Z,102007.28
2023-05-07T21:19:01.639Z,101996.31
2023-05-07T21:21:29.572Z,102012.88
2023-05-07T21:23:57.338Z,102017.44
2023-05-07T21:26:25.387Z,102018.75
2023-05-07T21:28:53.471Z,102025.13
2023-05-07T21:31:21.955Z,102024.25
2023-05-07T21:33:53.155Z,102030.06
2023-05-07T21:36:21.278Z,102025.72
2023-05-07T21:38:49.023Z,102031.22
2023-05-07T21:41:16.982Z,102018.25
2023-05-07T21:43:45.142Z,102028.03
2023-05-07T21:46:13.482Z,102035.91
2023-05-07T21:48:41.608Z,102027.56
2023-05-07T21:51:11.021Z,102030.03
2023-05-07T21:53:38.814Z,102028.75
2023-05-07T21:56:07.096Z,102027.34
2023-05-07T21:58:34.875Z,102038.16
2023-05-07T22:01:02.738Z,102030.38
2023-05-07T22:03:30.703Z,102028.69
2023-05-07T22:05:58.501Z,102028.28
2023-05-07T22:08:27.751Z,102026.41
2023-05-07T22:10:55.574Z,102028.88
2023-05-07T22:13:23.442Z,102024.59
2023-05-07T22:15:57.590Z,102025.75
2023-05-07T22:18:26.893Z,102023.63
2023-05-07T22:20:54.742Z,102027.22
2023-05-07T22:23:22.521Z,102031.31
2023-05-07T22:25:51.672Z,102034.66
2023-05-07T22:28:19.493Z,102034.56
2023-05-07T22:30:47.283Z,102032.41
2023-05-07T22:33:15.063Z,102029.28
2023-05-07T22:35:43.240Z,102028.72
2023-05-07T22:38:11.095Z,102028.16
2023-05-07T22:40:38.824Z,102035.66
2023-05-07T22:43:07.955Z,102028.59
2023-05-07T22:45:35.985Z,102028.91
2023-05-07T22:48:03.992Z,102029.94
2023-05-07T22:50:31.800Z,102038.59
2023-05-07T22:52:59.548Z,102018.41
2023-05-07T22:55:27.324Z,102026.22
2023-05-07T22:57:55.244Z,102033.84
2023-05-07T23:00:25.009Z,102014.69
2023-05-07T23:02:52.992Z,102038.75
2023-05-07T23:05:20.893Z,102026.38
2023-05-07T23:07:49.201Z,102026.50
2023-05-07T23:10:17.155Z,102026.50
2023-05-07T23:12:49.144Z,102027.84
2023-05-07T23:15:17.399Z,102028.13
2023-05-07T23:17:47.729Z,102027.28
2023-05-07T23:20:15.849Z,102022.94
2023-05-07T23:22:43.774Z,102024.13
2023-05-07T23:25:11.924Z,102010.28
2023-05-07T23:27:39.679Z,102027.44
2023-05-07T23:30:09.251Z,102018.66
2023-05-07T23:32:37.091Z,102029.91
2023-05-07T23:35:07.431Z,102029.50
2023-05-07T23:37:35.302Z,102022.59
2023-05-07T23:40:03.558Z,102035.41
2023-05-07T23:42:31.413Z,102037.44
2023-05-07T23:44:59.182Z,102043.03
2023-05-07T23:47:26.959Z,102036.00
2023-05-07T23:49:54.777Z,102039.72
2023-05-07T23:52:23.892Z,102038.03
2023-05-07T23:54:51.682Z,102032.09
2023-05-07T23:57:19.787Z,102034.84
2023-05-07T23:59:47.645Z,102034.16
